sensor_id;sensor_type;location;lat;lon;timestamp;pressure;altitude;pressure_sealevel;temperature
71649;BMP180;59492;45.638;11.714;2022-12-16T00:01:28;99544.20;;;16.80
71649;BMP180;59492;45.638;11.714;2022-12-16T00:03:56;99542.40;;;16.80
71649;BMP180;59492;45.638;11.714;2022-12-16T00:06:25;99538.80;;;16.78
71649;BMP180;59492;45.638;11.714;2022-12-16T00:08:51;99541.40;;;16.80
71649;BMP180;59492;45.638;11.714;2022-12-16T00:11:16;99536.80;;;16.84
71649;BMP180;59492;45.638;11.714;2022-12-16T00:13:42;99546.40;;;16.80
71649;BMP180;59492;45.638;11.714;2022-12-16T00:16:10;99557.80;;;16.80
71649;BMP180;59492;45.638;11.714;2022-12-16T00:18:36;99557.00;;;16.80
71649;BMP180;59492;45.638;11.714;2022-12-16T00:21:03;99550.40;;;16.80
71649;BMP180;59492;45.638;11.714;2022-12-16T00:23:29;99548.60;;;16.78
71649;BMP180;59492;45.638;11.714;2022-12-16T00:25:55;99547.60;;;16.78
71649;BMP180;59492;45.638;11.714;2022-12-16T00:28:21;99555.00;;;16.74
71649;BMP180;59492;45.638;11.714;2022-12-16T00:30:48;99553.20;;;16.80
71649;BMP180;59492;45.638;11.714;2022-12-16T00:33:15;99550.80;;;16.80
71649;BMP180;59492;45.638;11.714;2022-12-16T00:35:40;99563.80;;;16.80
71649;BMP180;59492;45.638;11.714;2022-12-16T00:38:06;99574.60;;;16.80
71649;BMP180;59492;45.638;11.714;2022-12-16T00:40:31;99554.80;;;16.80
71649;BMP180;59492;45.638;11.714;2022-12-16T00:42:57;99547.00;;;16.78
71649;BMP180;59492;45.638;11.714;2022-12-16T00:45:22;99567.40;;;16.74
71649;BMP180;59492;45.638;11.714;2022-12-16T00:47:50;99577.20;;;16.70
71649;BMP180;59492;45.638;11.714;2022-12-16T00:50:16;99562.40;;;16.70
71649;BMP180;59492;45.638;11.714;2022-12-16T00:52:43;99546.60;;;16.80
71649;BMP180;59492;45.638;11.714;2022-12-16T00:55:09;99535.20;;;16.80
71649;BMP180;59492;45.638;11.714;2022-12-16T00:57:35;99532.60;;;16.80
71649;BMP180;59492;45.638;11.714;2022-12-16T01:00:00;99538.60;;;16.80
71649;BMP180;59492;45.638;11.714;2022-12-16T01:02:30;99547.80;;;16.70
71649;BMP180;59492;45.638;11.714;2022-12-16T01:04:55;99558.80;;;16.70
71649;BMP180;59492;45.638;11.714;2022-12-16T01:07:21;99558.60;;;16.70
71649;BMP180;59492;45.638;11.714;2022-12-16T01:09:46;99558.00;;;16.70
71649;BMP180;59492;45.638;11.714;2022-12-16T01:12:12;99568.80;;;16.70
71649;BMP180;59492;45.638;11.714;2022-12-16T01:14:37;99573.60;;;16.70
71649;BMP180;59492;45.638;11.714;2022-12-16T01:17:03;99578.20;;;16.78
71649;BMP180;59492;45.638;11.714;2022-12-16T01:19:29;99580.80;;;16.76
71649;BMP180;59492;45.638;11.714;2022-12-16T01:21:54;99580.60;;;16.70
71649;BMP180;59492;45.638;11.714;2022-12-16T01:24:20;99583.60;;;16.70
71649;BMP180;59492;45.638;11.714;2022-12-16T01:26:45;99582.20;;;16.70
71649;BMP180;59492;45.638;11.714;2022-12-16T01:29:11;99582.60;;;16.70
71649;BMP180;59492;45.638;11.714;2022-12-16T01:31:36;99577.80;;;16.68
71649;BMP180;59492;45.638;11.714;2022-12-16T01:34:02;99574.20;;;16.66
71649;BMP180;59492;45.638;11.714;2022-12-16T01:36:28;99575.00;;;16.70
71649;BMP180;59492;45.638;11.714;2022-12-16T01:38:54;99577.60;;;16.74
71649;BMP180;59492;45.638;11.714;2022-12-16T01:41:19;99578.00;;;16.70
71649;BMP180;59492;45.638;11.714;2022-12-16T01:43:45;99579.60;;;16.70
71649;BMP180;59492;45.638;11.714;2022-12-16T01:49:00;99584.60;;;16.70
71649;BMP180;59492;45.638;11.714;2022-12-16T01:51:34;99586.60;;;16.60
71649;BMP180;59492;45.638;11.714;2022-12-16T01:54:07;99584.40;;;16.60
71649;BMP180;59492;45.638;11.714;2022-12-16T01:56:34;99589.60;;;16.60
71649;BMP180;59492;45.638;11.714;2022-12-16T01:59:01;99592.60;;;16.60
71649;BMP180;59492;45.638;11.714;2022-12-16T02:01:27;99591.00;;;16.70
71649;BMP180;59492;45.638;11.714;2022-12-16T02:03:53;99591.80;;;16.68
71649;BMP180;59492;45.638;11.714;2022-12-16T02:06:21;99587.00;;;16.64
71649;BMP180;59492;45.638;11.714;2022-12-16T02:08:52;99579.40;;;16.60
71649;BMP180;59492;45.638;11.714;2022-12-16T02:17:06;99584.00;;;16.50
71649;BMP180;59492;45.638;11.714;2022-12-16T02:25:23;99596.20;;;16.62
71649;BMP180;59492;45.638;11.714;2022-12-16T02:36:08;99585.60;;;16.60
71649;BMP180;59492;45.638;11.714;2022-12-16T02:41:22;99593.20;;;16.60
71649;BMP180;59492;45.638;11.714;2022-12-16T02:43:58;99582.20;;;16.60
71649;BMP180;59492;45.638;11.714;2022-12-16T02:46:28;99580.00;;;16.70
71649;BMP180;59492;45.638;11.714;2022-12-16T02:48:55;99581.80;;;16.68
71649;BMP180;59492;45.638;11.714;2022-12-16T02:51:23;99594.20;;;16.62
71649;BMP180;59492;45.638;11.714;2022-12-16T02:53:52;99599.00;;;16.60
71649;BMP180;59492;45.638;11.714;2022-12-16T03:01:37;99609.00;;;16.60
71649;BMP180;59492;45.638;11.714;2022-12-16T03:04:11;99604.80;;;16.60
71649;BMP180;59492;45.638;11.714;2022-12-16T03:06:41;99603.80;;;16.60
71649;BMP180;59492;45.638;11.714;2022-12-16T03:09:10;99601.20;;;16.70
71649;BMP180;59492;45.638;11.714;2022-12-16T03:11:39;99600.20;;;16.66
71649;BMP180;59492;45.638;11.714;2022-12-16T03:14:10;99598.40;;;16.60
71649;BMP180;59492;45.638;11.714;2022-12-16T03:16:38;99591.40;;;16.60
71649;BMP180;59492;45.638;11.714;2022-12-16T03:19:06;99599.40;;;16.60
71649;BMP180;59492;45.638;11.714;2022-12-16T03:21:42;99601.00;;;16.60
71649;BMP180;59492;45.638;11.714;2022-12-16T03:24:10;99604.00;;;16.60
71649;BMP180;59492;45.638;11.714;2022-12-16T03:26:43;99600.40;;;16.60
71649;BMP180;59492;45.638;11.714;2022-12-16T03:29:17;99609.20;;;16.60
71649;BMP180;59492;45.638;11.714;2022-12-16T03:31:58;99617.60;;;16.70
71649;BMP180;59492;45.638;11.714;2022-12-16T03:34:35;99626.00;;;16.68
71649;BMP180;59492;45.638;11.714;2022-12-16T03:37:08;99624.00;;;16.60
71649;BMP180;59492;45.638;11.714;2022-12-16T03:39:42;99627.20;;;16.62
71649;BMP180;59492;45.638;11.714;2022-12-16T03:42:12;99635.60;;;16.60
71649;BMP180;59492;45.638;11.714;2022-12-16T03:44:42;99639.60;;;16.60
71649;BMP180;59492;45.638;11.714;2022-12-16T03:47:08;99647.40;;;16.60
71649;BMP180;59492;45.638;11.714;2022-12-16T03:49:33;99652.00;;;16.60
71649;BMP180;59492;45.638;11.714;2022-12-16T03:51:59;99651.60;;;16.70
71649;BMP180;59492;45.638;11.714;2022-12-16T03:54:25;99649.20;;;16.70
71649;BMP180;59492;45.638;11.714;2022-12-16T03:56:50;99646.00;;;16.70
71649;BMP180;59492;45.638;11.714;2022-12-16T03:59:17;99636.80;;;16.68
71649;BMP180;59492;45.638;11.714;2022-12-16T04:01:44;99625.00;;;16.62
71649;BMP180;59492;45.638;11.714;2022-12-16T04:04:10;99615.20;;;16.60
71649;BMP180;59492;45.638;11.714;2022-12-16T04:06:37;99603.60;;;16.60
71649;BMP180;59492;45.638;11.714;2022-12-16T04:09:03;99614.60;;;16.60
71649;BMP180;59492;45.638;11.714;2022-12-16T04:11:28;99622.60;;;16.60
71649;BMP180;59492;45.638;11.714;2022-12-16T04:14:33;99633.40;;;16.60
71649;BMP180;59492;45.638;11.714;2022-12-16T04:17:17;99629.00;;;16.68
71649;BMP180;59492;45.638;11.714;2022-12-16T04:20:02;99624.80;;;16.60
71649;BMP180;59492;45.638;11.714;2022-12-16T04:22:46;99630.80;;;16.60
71649;BMP180;59492;45.638;11.714;2022-12-16T04:25:32;99640.20;;;16.60
71649;BMP180;59492;45.638;11.714;2022-12-16T04:28:01;99631.40;;;16.60
71649;BMP180;59492;45.638;11.714;2022-12-16T04:30:29;99620.60;;;16.60
71649;BMP180;59492;45.638;11.714;2022-12-16T04:33:01;99617.20;;;16.60
71649;BMP180;59492;45.638;11.714;2022-12-16T04:35:48;99624.60;;;16.54
71649;BMP180;59492;45.638;11.714;2022-12-16T04:38:33;99637.80;;;16.60
71649;BMP180;59492;45.638;11.714;2022-12-16T04:41:17;99640.60;;;16.60
71649;BMP180;59492;45.638;11.714;2022-12-16T04:44:02;99629.00;;;16.60
71649;BMP180;59492;45.638;11.714;2022-12-16T04:46:47;99634.60;;;16.60
71649;BMP180;59492;45.638;11.714;2022-12-16T04:49:31;99647.00;;;16.58
71649;BMP180;59492;45.638;11.714;2022-12-16T04:52:15;99650.80;;;16.52
71649;BMP180;59492;45.638;11.714;2022-12-16T04:55:00;99651.20;;;16.50
71649;BMP180;59492;45.638;11.714;2022-12-16T04:57:52;99653.60;;;16.50
71649;BMP180;59492;45.638;11.714;2022-12-16T05:00:37;99654.00;;;16.58
71649;BMP180;59492;45.638;11.714;2022-12-16T05:03:21;99658.40;;;16.60
71649;BMP180;59492;45.638;11.714;2022-12-16T05:06:06;99650.40;;;16.60
71649;BMP180;59492;45.638;11.714;2022-12-16T05:08:50;99650.80;;;16.50
71649;BMP180;59492;45.638;11.714;2022-12-16T05:11:34;99659.40;;;16.50
71649;BMP180;59492;45.638;11.714;2022-12-16T05:14:18;99651.40;;;16.50
71649;BMP180;59492;45.638;11.714;2022-12-16T05:17:02;99649.00;;;16.50
71649;BMP180;59492;45.638;11.714;2022-12-16T05:19:46;99649.20;;;16.46
71649;BMP180;59492;45.638;11.714;2022-12-16T05:22:31;99646.60;;;16.44
71649;BMP180;59492;45.638;11.714;2022-12-16T05:25:15;99648.80;;;16.50
71649;BMP180;59492;45.638;11.714;2022-12-16T05:27:59;99650.40;;;16.50
71649;BMP180;59492;45.638;11.714;2022-12-16T05:30:43;99652.60;;;16.50
71649;BMP180;59492;45.638;11.714;2022-12-16T05:33:28;99654.00;;;16.50
71649;BMP180;59492;45.638;11.714;2022-12-16T05:36:12;99650.40;;;16.46
71649;BMP180;59492;45.638;11.714;2022-12-16T05:38:56;99638.00;;;16.40
71649;BMP180;59492;45.638;11.714;2022-12-16T05:41:40;99641.00;;;16.40
71649;BMP180;59492;45.638;11.714;2022-12-16T05:44:25;99639.80;;;16.40
71649;BMP180;59492;45.638;11.714;2022-12-16T05:47:09;99644.80;;;16.40
71649;BMP180;59492;45.638;11.714;2022-12-16T05:49:53;99646.20;;;16.50
71649;BMP180;59492;45.638;11.714;2022-12-16T05:52:37;99645.40;;;16.50
71649;BMP180;59492;45.638;11.714;2022-12-16T05:55:22;99646.40;;;16.44
71649;BMP180;59492;45.638;11.714;2022-12-16T05:58:07;99655.20;;;16.42
71649;BMP180;59492;45.638;11.714;2022-12-16T06:00:52;99663.20;;;16.40
71649;BMP180;59492;45.638;11.714;2022-12-16T06:03:36;99667.80;;;16.40
71649;BMP180;59492;45.638;11.714;2022-12-16T06:06:20;99671.20;;;16.40
71649;BMP180;59492;45.638;11.714;2022-12-16T06:09:05;99665.00;;;16.40
71649;BMP180;59492;45.638;11.714;2022-12-16T06:11:49;99658.20;;;16.40
71649;BMP180;59492;45.638;11.714;2022-12-16T06:14:34;99654.40;;;16.46
71649;BMP180;59492;45.638;11.714;2022-12-16T06:17:19;99656.40;;;16.40
71649;BMP180;59492;45.638;11.714;2022-12-16T06:20:04;99660.60;;;16.40
71649;BMP180;59492;45.638;11.714;2022-12-16T06:22:53;99666.80;;;16.40
71649;BMP180;59492;45.638;11.714;2022-12-16T06:25:37;99662.00;;;16.40
71649;BMP180;59492;45.638;11.714;2022-12-16T06:28:22;99666.60;;;16.38
71649;BMP180;59492;45.638;11.714;2022-12-16T06:31:07;99667.00;;;16.32
71649;BMP180;59492;45.638;11.714;2022-12-16T06:33:51;99675.40;;;16.34
71649;BMP180;59492;45.638;11.714;2022-12-16T06:36:35;99686.80;;;16.40
71649;BMP180;59492;45.638;11.714;2022-12-16T06:39:19;99689.60;;;16.40
71649;BMP180;59492;45.638;11.714;2022-12-16T06:42:03;99696.20;;;16.40
71649;BMP180;59492;45.638;11.714;2022-12-16T06:44:48;99693.00;;;16.40
71649;BMP180;59492;45.638;11.714;2022-12-16T06:47:32;99690.60;;;16.40
71649;BMP180;59492;45.638;11.714;2022-12-16T06:50:16;99690.00;;;16.40
71649;BMP180;59492;45.638;11.714;2022-12-16T06:53:00;99699.40;;;16.38
71649;BMP180;59492;45.638;11.714;2022-12-16T06:55:44;99706.60;;;16.40
71649;BMP180;59492;45.638;11.714;2022-12-16T06:58:28;99713.20;;;16.42
71649;BMP180;59492;45.638;11.714;2022-12-16T07:01:13;99719.40;;;16.40
71649;BMP180;59492;45.638;11.714;2022-12-16T07:03:56;99721.00;;;16.40
71649;BMP180;59492;45.638;11.714;2022-12-16T07:06:41;99720.00;;;16.40
71649;BMP180;59492;45.638;11.714;2022-12-16T07:09:25;99720.00;;;16.38
71649;BMP180;59492;45.638;11.714;2022-12-16T07:12:09;99719.20;;;16.32
71649;BMP180;59492;45.638;11.714;2022-12-16T07:14:53;99721.20;;;16.30
71649;BMP180;59492;45.638;11.714;2022-12-16T07:17:40;99721.00;;;16.40
71649;BMP180;59492;45.638;11.714;2022-12-16T07:20:24;99718.60;;;16.40
71649;BMP180;59492;45.638;11.714;2022-12-16T07:23:08;99722.80;;;16.40
71649;BMP180;59492;45.638;11.714;2022-12-16T07:25:53;99724.20;;;16.40
71649;BMP180;59492;45.638;11.714;2022-12-16T07:28:37;99726.80;;;16.40
71649;BMP180;59492;45.638;11.714;2022-12-16T07:31:21;99733.80;;;16.32
71649;BMP180;59492;45.638;11.714;2022-12-16T07:34:06;99740.00;;;16.30
71649;BMP180;59492;45.638;11.714;2022-12-16T07:36:50;99741.20;;;16.30
71649;BMP180;59492;45.638;11.714;2022-12-16T07:39:35;99739.00;;;16.40
71649;BMP180;59492;45.638;11.714;2022-12-16T07:42:20;99743.60;;;16.40
71649;BMP180;59492;45.638;11.714;2022-12-16T07:45:04;99744.60;;;16.40
71649;BMP180;59492;45.638;11.714;2022-12-16T07:47:50;99745.20;;;16.40
71649;BMP180;59492;45.638;11.714;2022-12-16T07:50:44;99748.80;;;16.40
71649;BMP180;59492;45.638;11.714;2022-12-16T07:53:40;99756.60;;;16.40
71649;BMP180;59492;45.638;11.714;2022-12-16T07:56:26;99772.20;;;16.40
71649;BMP180;59492;45.638;11.714;2022-12-16T07:59:10;99779.00;;;16.40
71649;BMP180;59492;45.638;11.714;2022-12-16T08:01:54;99784.20;;;16.50
71649;BMP180;59492;45.638;11.714;2022-12-16T08:04:38;99783.20;;;16.50
71649;BMP180;59492;45.638;11.714;2022-12-16T08:07:23;99785.40;;;16.50
71649;BMP180;59492;45.638;11.714;2022-12-16T08:10:07;99788.00;;;16.50
71649;BMP180;59492;45.638;11.714;2022-12-16T08:12:58;99791.00;;;16.48
71649;BMP180;59492;45.638;11.714;2022-12-16T08:15:44;99793.00;;;16.42
71649;BMP180;59492;45.638;11.714;2022-12-16T08:18:28;99791.20;;;16.42
71649;BMP180;59492;45.638;11.714;2022-12-16T08:21:13;99797.20;;;16.40
71649;BMP180;59492;45.638;11.714;2022-12-16T08:23:59;99806.00;;;16.50
71649;BMP180;59492;45.638;11.714;2022-12-16T08:26:44;99820.40;;;16.50
71649;BMP180;59492;45.638;11.714;2022-12-16T08:29:28;99827.60;;;16.50
71649;BMP180;59492;45.638;11.714;2022-12-16T08:32:13;99832.00;;;16.50
71649;BMP180;59492;45.638;11.714;2022-12-16T08:35:02;99835.60;;;16.50
71649;BMP180;59492;45.638;11.714;2022-12-16T08:37:57;99829.00;;;16.50
71649;BMP180;59492;45.638;11.714;2022-12-16T08:40:42;99824.80;;;16.50
71649;BMP180;59492;45.638;11.714;2022-12-16T08:43:32;99830.40;;;16.50
71649;BMP180;59492;45.638;11.714;2022-12-16T08:46:20;99836.00;;;16.58
71649;BMP180;59492;45.638;11.714;2022-12-16T08:49:05;99846.80;;;16.60
71649;BMP180;59492;45.638;11.714;2022-12-16T08:51:50;99848.60;;;16.60
71649;BMP180;59492;45.638;11.714;2022-12-16T08:54:34;99854.20;;;16.60
71649;BMP180;59492;45.638;11.714;2022-12-16T08:57:19;99857.80;;;16.58
71649;BMP180;59492;45.638;11.714;2022-12-16T09:00:04;99867.80;;;16.54
71649;BMP180;59492;45.638;11.714;2022-12-16T09:02:54;99863.80;;;16.50
71649;BMP180;59492;45.638;11.714;2022-12-16T09:05:38;99865.60;;;16.50
71649;BMP180;59492;45.638;11.714;2022-12-16T09:08:22;99879.80;;;16.60
71649;BMP180;59492;45.638;11.714;2022-12-16T09:11:06;99888.60;;;16.64
71649;BMP180;59492;45.638;11.714;2022-12-16T09:13:50;99888.80;;;16.60
71649;BMP180;59492;45.638;11.714;2022-12-16T09:16:34;99891.60;;;16.60
71649;BMP180;59492;45.638;11.714;2022-12-16T09:19:18;99890.00;;;16.60
71649;BMP180;59492;45.638;11.714;2022-12-16T09:22:03;99890.00;;;16.60
71649;BMP180;59492;45.638;11.714;2022-12-16T09:24:47;99886.40;;;16.60
71649;BMP180;59492;45.638;11.714;2022-12-16T09:27:31;99888.80;;;16.60
71649;BMP180;59492;45.638;11.714;2022-12-16T09:30:15;99887.60;;;16.60
71649;BMP180;59492;45.638;11.714;2022-12-16T09:33:00;99893.40;;;16.70
71649;BMP180;59492;45.638;11.714;2022-12-16T09:35:45;99897.40;;;16.70
71649;BMP180;59492;45.638;11.714;2022-12-16T09:38:29;99909.40;;;16.60
71649;BMP180;59492;45.638;11.714;2022-12-16T09:47:32;99883.00;;;16.60
71649;BMP180;59492;45.638;11.714;2022-12-16T09:50:25;99873.40;;;16.60
71649;BMP180;59492;45.638;11.714;2022-12-16T09:53:14;99891.40;;;16.60
71649;BMP180;59492;45.638;11.714;2022-12-16T09:56:02;99896.80;;;16.62
71649;BMP180;59492;45.638;11.714;2022-12-16T09:58:55;99898.00;;;16.70
71649;BMP180;59492;45.638;11.714;2022-12-16T10:01:42;99903.80;;;16.68
71649;BMP180;59492;45.638;11.714;2022-12-16T10:04:26;99888.20;;;16.60
71649;BMP180;59492;45.638;11.714;2022-12-16T10:07:19;99868.40;;;16.60
71649;BMP180;59492;45.638;11.714;2022-12-16T10:10:46;99868.20;;;16.60
71649;BMP180;59492;45.638;11.714;2022-12-16T10:13:51;99870.00;;;16.60
71649;BMP180;59492;45.638;11.714;2022-12-16T10:20:06;99870.80;;;16.60
71649;BMP180;59492;45.638;11.714;2022-12-16T10:23:27;99877.20;;;16.64
71649;BMP180;59492;45.638;11.714;2022-12-16T10:26:33;99869.60;;;16.60
71649;BMP180;59492;45.638;11.714;2022-12-16T10:29:23;99879.20;;;16.60
71649;BMP180;59492;45.638;11.714;2022-12-16T10:32:32;99870.60;;;16.60
71649;BMP180;59492;45.638;11.714;2022-12-16T10:35:21;99892.20;;;16.60
71649;BMP180;59492;45.638;11.714;2022-12-16T10:38:21;99882.60;;;16.60
71649;BMP180;59492;45.638;11.714;2022-12-16T10:41:06;99904.00;;;16.60
71649;BMP180;59492;45.638;11.714;2022-12-16T10:43:53;99884.60;;;16.60
71649;BMP180;59492;45.638;11.714;2022-12-16T10:46:38;99885.80;;;16.70
71649;BMP180;59492;45.638;11.714;2022-12-16T10:49:23;99876.00;;;16.66
71649;BMP180;59492;45.638;11.714;2022-12-16T10:52:11;99871.20;;;16.66
71649;BMP180;59492;45.638;11.714;2022-12-16T10:55:18;99880.00;;;16.60
71649;BMP180;59492;45.638;11.714;2022-12-16T11:01:22;99878.60;;;16.60
71649;BMP180;59492;45.638;11.714;2022-12-16T11:04:29;99883.00;;;16.60
71649;BMP180;59492;45.638;11.714;2022-12-16T11:16:28;99882.60;;;16.68
71649;BMP180;59492;45.638;11.714;2022-12-16T11:19:21;99869.00;;;16.70
71649;BMP180;59492;45.638;11.714;2022-12-16T11:25:15;99870.00;;;16.66
71649;BMP180;59492;45.638;11.714;2022-12-16T11:30:52;99871.80;;;16.70
71649;BMP180;59492;45.638;11.714;2022-12-16T11:33:38;99866.80;;;16.72
71649;BMP180;59492;45.638;11.714;2022-12-16T11:36:24;99861.80;;;16.80
71649;BMP180;59492;45.638;11.714;2022-12-16T11:39:15;99861.00;;;16.80
71649;BMP180;59492;45.638;11.714;2022-12-16T11:42:01;99864.80;;;16.74
71649;BMP180;59492;45.638;11.714;2022-12-16T11:44:54;99862.60;;;16.70
71649;BMP180;59492;45.638;11.714;2022-12-16T11:48:11;99851.60;;;16.70
71649;BMP180;59492;45.638;11.714;2022-12-16T11:51:01;99837.00;;;16.70
71649;BMP180;59492;45.638;11.714;2022-12-16T11:56:36;99843.60;;;16.80
71649;BMP180;59492;45.638;11.714;2022-12-16T12:02:14;99844.60;;;16.80
71649;BMP180;59492;45.638;11.714;2022-12-16T12:05:01;99846.40;;;16.72
71649;BMP180;59492;45.638;11.714;2022-12-16T12:08:07;99854.80;;;16.70
71649;BMP180;59492;45.638;11.714;2022-12-16T12:11:03;99855.80;;;16.70
71649;BMP180;59492;45.638;11.714;2022-12-16T12:14:06;99850.80;;;16.70
71649;BMP180;59492;45.638;11.714;2022-12-16T12:20:30;99858.80;;;16.80
71649;BMP180;59492;45.638;11.714;2022-12-16T12:23:42;99864.80;;;16.80
71649;BMP180;59492;45.638;11.714;2022-12-16T12:26:35;99865.00;;;16.72
71649;BMP180;59492;45.638;11.714;2022-12-16T12:29:32;99868.60;;;16.72
71649;BMP180;59492;45.638;11.714;2022-12-16T12:32:34;99875.60;;;16.70
71649;BMP180;59492;45.638;11.714;2022-12-16T12:35:30;99874.40;;;16.70
71649;BMP180;59492;45.638;11.714;2022-12-16T12:38:35;99879.20;;;16.60
71649;BMP180;59492;45.638;11.714;2022-12-16T12:41:26;99883.80;;;16.70
71649;BMP180;59492;45.638;11.714;2022-12-16T12:44:42;99879.00;;;16.74
71649;BMP180;59492;45.638;11.714;2022-12-16T12:47:34;99875.00;;;16.80
71649;BMP180;59492;45.638;11.714;2022-12-16T12:50:28;99876.60;;;16.80
71649;BMP180;59492;45.638;11.714;2022-12-16T12:56:34;99868.80;;;16.80
71649;BMP180;59492;45.638;11.714;2022-12-16T13:02:41;99865.60;;;16.80
71649;BMP180;59492;45.638;11.714;2022-12-16T13:05:28;99874.00;;;16.88
71649;BMP180;59492;45.638;11.714;2022-12-16T13:11:15;99885.00;;;16.90
71649;BMP180;59492;45.638;11.714;2022-12-16T13:13:59;99888.80;;;16.90
71649;BMP180;59492;45.638;11.714;2022-12-16T13:22:47;99895.80;;;16.84
71649;BMP180;59492;45.638;11.714;2022-12-16T13:25:49;99882.20;;;16.80
71649;BMP180;59492;45.638;11.714;2022-12-16T13:28:36;99882.00;;;16.90
71649;BMP180;59492;45.638;11.714;2022-12-16T13:31:22;99886.00;;;16.96
71649;BMP180;59492;45.638;11.714;2022-12-16T13:34:21;99893.80;;;16.90
71649;BMP180;59492;45.638;11.714;2022-12-16T13:37:20;99898.60;;;16.90
71649;BMP180;59492;45.638;11.714;2022-12-16T13:40:18;99893.60;;;16.90
71649;BMP180;59492;45.638;11.714;2022-12-16T13:43:04;99896.00;;;16.90
71649;BMP180;59492;45.638;11.714;2022-12-16T13:48:49;99894.20;;;16.90
71649;BMP180;59492;45.638;11.714;2022-12-16T13:54:38;99914.60;;;17.00
71649;BMP180;59492;45.638;11.714;2022-12-16T13:57:27;99913.40;;;16.92
71649;BMP180;59492;45.638;11.714;2022-12-16T14:00:18;99906.80;;;16.90
71649;BMP180;59492;45.638;11.714;2022-12-16T14:03:18;99915.80;;;16.90
71649;BMP180;59492;45.638;11.714;2022-12-16T14:06:07;99921.60;;;16.90
71649;BMP180;59492;45.638;11.714;2022-12-16T14:08:53;99926.80;;;16.90
71649;BMP180;59492;45.638;11.714;2022-12-16T14:12:03;99926.20;;;16.90
71649;BMP180;59492;45.638;11.714;2022-12-16T14:15:04;99923.00;;;16.90
71649;BMP180;59492;45.638;11.714;2022-12-16T14:17:58;99930.40;;;17.00
71649;BMP180;59492;45.638;11.714;2022-12-16T14:20:53;99924.80;;;16.90
71649;BMP180;59492;45.638;11.714;2022-12-16T14:23:56;99928.40;;;16.90
71649;BMP180;59492;45.638;11.714;2022-12-16T14:26:46;99939.00;;;16.90
71649;BMP180;59492;45.638;11.714;2022-12-16T14:29:31;99942.40;;;16.90
71649;BMP180;59492;45.638;11.714;2022-12-16T14:32:27;99945.60;;;16.90
71649;BMP180;59492;45.638;11.714;2022-12-16T14:35:17;99946.60;;;16.90
71649;BMP180;59492;45.638;11.714;2022-12-16T14:41:14;99959.40;;;17.00
71649;BMP180;59492;45.638;11.714;2022-12-16T14:43:59;99965.20;;;17.00
71649;BMP180;59492;45.638;11.714;2022-12-16T14:46:49;99967.40;;;17.00
71649;BMP180;59492;45.638;11.714;2022-12-16T14:49:34;99967.20;;;17.00
71649;BMP180;59492;45.638;11.714;2022-12-16T14:52:24;99966.00;;;17.00
71649;BMP180;59492;45.638;11.714;2022-12-16T14:55:25;99971.80;;;17.00
71649;BMP180;59492;45.638;11.714;2022-12-16T14:58:14;99971.40;;;17.00
71649;BMP180;59492;45.638;11.714;2022-12-16T15:01:13;99970.80;;;17.10
71649;BMP180;59492;45.638;11.714;2022-12-16T15:03:58;99973.20;;;17.18
71649;BMP180;59492;45.638;11.714;2022-12-16T15:06:46;99975.60;;;17.20
71649;BMP180;59492;45.638;11.714;2022-12-16T15:09:40;99981.00;;;17.20
71649;BMP180;59492;45.638;11.714;2022-12-16T15:12:27;99984.20;;;17.20
71649;BMP180;59492;45.638;11.714;2022-12-16T15:15:21;99987.40;;;17.20
71649;BMP180;59492;45.638;11.714;2022-12-16T15:18:21;99999.40;;;17.20
71649;BMP180;59492;45.638;11.714;2022-12-16T15:21:07;100006.40;;;17.20
71649;BMP180;59492;45.638;11.714;2022-12-16T15:23:52;100007.20;;;17.30
71649;BMP180;59492;45.638;11.714;2022-12-16T15:26:36;100009.60;;;17.40
71649;BMP180;59492;45.638;11.714;2022-12-16T15:29:37;100010.00;;;17.40
71649;BMP180;59492;45.638;11.714;2022-12-16T15:38:31;100018.80;;;17.40
71649;BMP180;59492;45.638;11.714;2022-12-16T15:41:33;100026.00;;;17.40
71649;BMP180;59492;45.638;11.714;2022-12-16T15:44:22;100032.20;;;17.40
71649;BMP180;59492;45.638;11.714;2022-12-16T15:47:30;100030.20;;;17.50
71649;BMP180;59492;45.638;11.714;2022-12-16T15:50:18;100034.00;;;17.50
71649;BMP180;59492;45.638;11.714;2022-12-16T15:59:24;100033.00;;;17.50
71649;BMP180;59492;45.638;11.714;2022-12-16T16:02:18;100034.80;;;17.46
71649;BMP180;59492;45.638;11.714;2022-12-16T16:05:20;100039.60;;;17.40
71649;BMP180;59492;45.638;11.714;2022-12-16T16:08:05;100040.60;;;17.40
71649;BMP180;59492;45.638;11.714;2022-12-16T16:10:49;100040.00;;;17.50
71649;BMP180;59492;45.638;11.714;2022-12-16T16:13:34;100041.20;;;17.50
71649;BMP180;59492;45.638;11.714;2022-12-16T16:16:18;100043.80;;;17.50
71649;BMP180;59492;45.638;11.714;2022-12-16T16:19:03;100046.20;;;17.50
71649;BMP180;59492;45.638;11.714;2022-12-16T16:21:47;100049.40;;;17.50
71649;BMP180;59492;45.638;11.714;2022-12-16T16:24:31;100054.20;;;17.48
71649;BMP180;59492;45.638;11.714;2022-12-16T16:27:17;100051.20;;;17.42
71649;BMP180;59492;45.638;11.714;2022-12-16T16:30:01;100055.00;;;17.40
71649;BMP180;59492;45.638;11.714;2022-12-16T16:32:47;100059.60;;;17.50
71649;BMP180;59492;45.638;11.714;2022-12-16T16:35:32;100054.40;;;17.50
71649;BMP180;59492;45.638;11.714;2022-12-16T16:38:17;100047.80;;;17.50
71649;BMP180;59492;45.638;11.714;2022-12-16T16:41:02;100047.80;;;17.46
71649;BMP180;59492;45.638;11.714;2022-12-16T16:43:46;100048.60;;;17.40
71649;BMP180;59492;45.638;11.714;2022-12-16T16:49:20;100053.80;;;17.40
71649;BMP180;59492;45.638;11.714;2022-12-16T16:52:11;100054.40;;;17.40
71649;BMP180;59492;45.638;11.714;2022-12-16T16:54:56;100053.40;;;17.48
71649;BMP180;59492;45.638;11.714;2022-12-16T16:57:40;100057.00;;;17.50
71649;BMP180;59492;45.638;11.714;2022-12-16T17:00:24;100058.80;;;17.42
71649;BMP180;59492;45.638;11.714;2022-12-16T17:03:28;100064.00;;;17.40
71649;BMP180;59492;45.638;11.714;2022-12-16T17:06:12;100063.40;;;17.30
71649;BMP180;59492;45.638;11.714;2022-12-16T17:08:56;100058.40;;;17.30
71649;BMP180;59492;45.638;11.714;2022-12-16T17:11:40;100048.00;;;17.30